Time;durP1;ratioP1;P1;durP2;ratioP2;P2;SDS_P1;SDS_P2;PMS_P1;PMS_P2;Temp;Humidity;BMP_temperature;BMP_pressure;BME280_temperature;BME280_humidity;BME280_pressure;Samples;Min_cycle;Max_cycle;Signal;HPM_P1;HPM_P2
2022/06/16 00:02:16;;;;;;;8.63;7.77;;;;;;;20.54;91.09;99266.41;5030930;28;20502;-81
2022/06/16 00:04:46;;;;;;;10.37;8.93;;;;;;;20.75;89.35;99268.78;5030964;28;20452;-81
2022/06/16 00:07:15;;;;;;;9.93;8.57;;;;;;;20.73;89.25;99270.81;5030777;28;20475;-82
2022/06/16 00:09:43;;;;;;;9.77;8.40;;;;;;;20.75;89.31;99269.63;5033127;28;20444;-82
2022/06/16 00:12:10;;;;;;;10.03;9.07;;;;;;;20.93;87.41;99253.13;5034569;28;20867;-81
2022/06/16 00:14:37;;;;;;;8.77;7.97;;;;;;;20.93;87.60;99261.34;5034590;28;20467;-81
2022/06/16 00:17:04;;;;;;;9.77;8.53;;;;;;;20.81;88.81;99257.19;5034476;28;20480;-80
2022/06/16 00:19:31;;;;;;;13.57;9.00;;;;;;;20.73;89.11;99260.72;5034045;28;20546;-80
2022/06/16 00:21:57;;;;;;;9.57;8.57;;;;;;;20.47;91.55;99260.72;5034401;28;20490;-80
2022/06/16 00:24:27;;;;;;;9.20;7.67;;;;;;;20.63;89.99;99254.53;5033936;28;20502;-81
2022/06/16 00:26:56;;;;;;;8.93;7.70;;;;;;;20.62;88.62;99263.72;5034234;28;20554;-82
2022/06/16 00:29:23;;;;;;;9.70;7.57;;;;;;;20.38;91.77;99253.47;5034340;28;20421;-82
2022/06/16 00:31:50;;;;;;;10.20;7.40;;;;;;;20.36;93.06;99252.78;5033962;28;20436;-80
2022/06/16 00:34:17;;;;;;;10.47;7.60;;;;;;;20.29;93.90;99254.44;5034390;28;20424;-80
2022/06/16 00:36:43;;;;;;;21.23;8.87;;;;;;;20.37;93.09;99249.00;5034321;28;20849;-80
2022/06/16 00:39:10;;;;;;;12.00;8.67;;;;;;;20.30;93.51;99243.31;5034186;28;20858;-81
2022/06/16 00:41:37;;;;;;;9.57;8.20;;;;;;;20.25;93.51;99251.16;5029327;28;20500;-81
2022/06/16 00:44:15;;;;;;;9.53;8.00;;;;;;;20.29;93.38;99254.44;5014310;28;20793;-81
2022/06/16 00:46:42;;;;;;;9.37;8.47;;;;;;;20.04;94.42;99251.53;5014203;28;20539;-80
2022/06/16 00:49:12;;;;;;;10.30;8.07;;;;;;;20.12;94.11;99251.56;5013733;28;20473;-80
2022/06/16 00:51:42;;;;;;;12.17;8.30;;;;;;;20.16;92.79;99258.44;5014002;28;20552;-80
2022/06/16 00:54:12;;;;;;;8.50;7.60;;;;;;;20.11;93.79;99255.31;5014003;28;20539;-79
2022/06/16 00:56:39;;;;;;;9.60;7.80;;;;;;;19.90;95.78;99252.06;5014141;28;20429;-80
2022/06/16 00:59:09;;;;;;;8.80;7.57;;;;;;;19.88;95.76;99251.38;5014249;28;20523;-79
2022/06/16 01:01:39;;;;;;;8.23;7.53;;;;;;;19.87;95.91;99246.91;5014253;28;20848;-80
2022/06/16 01:06:50;;;;;;;9.00;8.20;;;;;;;19.43;98.87;99247.66;5014146;28;20544;-80
2022/06/16 01:09:19;;;;;;;11.50;8.60;;;;;;;19.47;98.79;99248.19;5014068;28;20452;-79
2022/06/16 01:15:09;;;;;;;10.23;8.70;;;;;;;19.28;99.35;99243.75;5014068;28;20472;-79
2022/06/16 01:17:47;;;;;;;11.17;8.70;;;;;;;19.20;100.00;99232.72;5013953;28;20434;-80
2022/06/16 01:20:24;;;;;;;11.27;8.70;;;;;;;19.33;98.74;99225.91;5013294;28;20493;-80
2022/06/16 01:23:32;;;;;;;9.10;8.20;;;;;;;18.98;100.00;99239.47;5014012;28;20520;-81
2022/06/16 01:26:09;;;;;;;9.73;8.47;;;;;;;18.98;100.00;99232.16;5005888;28;20519;-80
2022/06/16 01:28:55;;;;;;;9.20;8.17;;;;;;;19.19;98.72;99228.28;5013646;28;20515;-81
2022/06/16 01:31:27;;;;;;;10.70;8.47;;;;;;;19.12;99.45;99231.63;5013745;28;20950;-81
2022/06/16 01:34:02;;;;;;;8.83;7.93;;;;;;;19.02;100.00;99239.03;5013394;28;20430;-79
2022/06/16 01:36:36;;;;;;;9.93;8.60;;;;;;;18.80;100.00;99244.88;5013307;28;20431;-79
2022/06/16 01:39:08;;;;;;;9.50;8.60;;;;;;;19.04;100.00;99242.47;5013612;28;20542;-81
2022/06/16 01:41:41;;;;;;;8.63;7.83;;;;;;;19.13;100.00;99243.38;5013708;28;20422;-80
2022/06/16 01:44:14;;;;;;;9.17;8.33;;;;;;;19.07;100.00;99246.75;5013242;28;20421;-79
2022/06/16 01:46:43;;;;;;;12.97;8.57;;;;;;;19.02;100.00;99240.91;5013594;28;20849;-80
2022/06/16 01:49:15;;;;;;;10.40;7.77;;;;;;;18.92;100.00;99247.25;5013368;28;20440;-80
2022/06/16 01:51:44;;;;;;;8.37;7.67;;;;;;;18.93;100.00;99245.41;5013411;28;20440;-81
2022/06/16 01:54:17;;;;;;;9.10;7.93;;;;;;;19.05;100.00;99246.91;5013304;28;20927;-81
2022/06/16 01:56:48;;;;;;;9.60;8.40;;;;;;;19.05;99.69;99241.44;5012926;28;20418;-80
2022/06/16 01:59:19;;;;;;;11.53;8.43;;;;;;;19.21;98.85;99253.56;5013227;28;20595;-80
2022/06/16 02:01:52;;;;;;;10.90;7.87;;;;;;;19.25;96.34;99241.34;5012943;28;20453;-80
2022/06/16 02:04:24;;;;;;;7.50;6.80;;;;;;;19.43;93.04;99250.41;5013211;28;20814;-80
2022/06/16 02:06:56;;;;;;;8.17;7.10;;;;;;;19.56;89.67;99250.88;5013223;28;20462;-79
2022/06/16 02:09:29;;;;;;;9.10;6.60;;;;;;;19.64;86.61;99252.81;5013287;28;21023;-80
2022/06/16 02:11:59;;;;;;;8.07;7.27;;;;;;;19.73;84.36;99256.53;5012732;28;20426;-81
2022/06/16 02:14:32;;;;;;;9.30;6.10;;;;;;;19.74;83.41;99250.03;5012926;28;20786;-80
2022/06/16 02:16:59;;;;;;;8.90;7.70;;;;;;;19.76;83.07;99248.91;5012526;28;20426;-79
2022/06/16 02:19:27;;;;;;;11.23;7.73;;;;;;;19.51;83.37;99249.63;5012862;28;20552;-80
2022/06/16 02:21:54;;;;;;;9.00;6.83;;;;;;;19.21;85.14;99261.75;5012813;28;20442;-81
2022/06/16 02:24:23;;;;;;;7.60;6.80;;;;;;;19.08;86.45;99254.75;5012521;28;20444;-81
2022/06/16 02:26:54;;;;;;;11.03;7.10;;;;;;;18.57;91.14;99260.72;5012992;28;20508;-80
2022/06/16 02:29:25;;;;;;;8.15;7.22;;;;;;;18.47;92.28;99263.47;5016464;28;20673;-81
2022/06/16 02:32:08;;;;;;;7.22;6.53;;;;;;;18.23;95.07;99261.25;5032365;28;20197;-81
2022/06/16 02:34:46;;;;;;;7.55;6.85;;;;;;;18.29;97.24;99266.97;5032152;28;20195;-80
2022/06/16 02:37:35;;;;;;;7.78;6.97;;;;;;;18.47;96.88;99272.50;5032490;28;20593;-80
2022/06/16 02:40:21;;;;;;;7.60;6.03;;;;;;;18.41;95.84;99273.09;5032330;28;20209;-80
2022/06/16 02:43:01;;;;;;;7.30;6.15;;;;;;;18.61;94.42;99276.63;5032435;28;20620;-79
2022/06/16 02:45:39;;;;;;;7.70;6.60;;;;;;;18.69;92.25;99268.56;5032263;28;20247;-80
2022/06/16 02:48:11;;;;;;;9.23;6.85;;;;;;;18.67;90.04;99270.56;5032277;28;20617;-80
2022/06/16 02:50:51;;;;;;;10.95;6.20;;;;;;;18.78;89.37;99274.16;5032258;28;20265;-80
2022/06/16 02:53:30;;;;;;;7.57;6.83;;;;;;;18.80;89.96;99270.28;5031781;28;20185;-80
2022/06/16 02:56:04;;;;;;;8.83;6.83;;;;;;;18.85;88.91;99278.00;5031687;28;20437;-80
2022/06/16 02:58:33;;;;;;;9.23;7.33;;;;;;;18.72;94.12;99283.75;5031718;28;20416;-80
2022/06/16 03:01:02;;;;;;;9.80;7.33;;;;;;;18.71;94.89;99282.06;5032769;28;20424;-80
2022/06/16 03:03:33;;;;;;;7.53;6.10;;;;;;;18.55;96.40;99288.97;5032278;28;20413;-80
2022/06/16 03:06:00;;;;;;;8.10;7.30;;;;;;;18.40;94.93;99290.44;5032089;28;20190;-80
2022/06/16 03:08:29;;;;;;;8.50;6.65;;;;;;;18.30;96.98;99281.44;5031799;28;20281;-79
2022/06/16 03:10:58;;;;;;;8.85;7.05;;;;;;;18.44;94.87;99300.06;5032242;28;20196;-80
2022/06/16 03:13:27;;;;;;;10.57;7.15;;;;;;;18.52;93.70;99302.91;5032579;28;20667;-80
2022/06/16 03:15:55;;;;;;;7.53;6.70;;;;;;;18.40;95.16;99305.94;5031632;28;20273;-80
2022/06/16 03:18:23;;;;;;;8.23;7.40;;;;;;;18.49;95.50;99305.91;5031944;28;20208;-79
2022/06/16 03:20:51;;;;;;;9.63;7.10;;;;;;;18.57;94.22;99313.38;5032053;28;20559;-80
2022/06/16 03:23:19;;;;;;;7.07;5.87;;;;;;;18.71;92.60;99312.03;5031874;28;20787;-81
2022/06/16 03:25:47;;;;;;;7.73;6.50;;;;;;;18.78;91.56;99315.06;5032128;28;20731;-80
2022/06/16 03:28:14;;;;;;;7.50;6.80;;;;;;;18.50;95.41;99309.53;5032006;28;21077;-80
2022/06/16 03:30:42;;;;;;;7.93;6.53;;;;;;;18.42;97.04;99312.13;5032028;28;20454;-79
2022/06/16 03:33:11;;;;;;;8.80;6.50;;;;;;;18.21;100.00;99315.88;5031957;28;20519;-80
2022/06/16 03:35:38;;;;;;;8.02;6.75;;;;;;;18.38;98.75;99314.25;5031443;28;20448;-80
2022/06/16 03:38:07;;;;;;;8.15;7.40;;;;;;;18.15;100.00;99315.59;5031647;28;20259;-79
2022/06/16 03:40:34;;;;;;;8.43;7.70;;;;;;;18.19;100.00;99317.88;5031594;28;20569;-79
2022/06/16 03:43:00;;;;;;;8.43;7.47;;;;;;;18.07;100.00;99317.19;5025383;28;20444;-81
2022/06/16 03:45:28;;;;;;;11.70;8.82;;;;;;;18.12;100.00;99320.31;5015363;28;20199;-80
2022/06/16 03:47:54;;;;;;;10.50;7.97;;;;;;;18.04;100.00;99306.56;5015692;28;20284;-79
2022/06/16 03:50:21;;;;;;;8.55;7.75;;;;;;;17.98;100.00;99309.88;5015279;28;20513;-80
2022/06/16 03:52:48;;;;;;;8.25;7.40;;;;;;;17.87;100.00;99315.47;5015228;28;20296;-79
2022/06/16 03:55:16;;;;;;;11.35;7.28;;;;;;;17.96;100.00;99319.19;5015601;28;20611;-80
2022/06/16 03:57:43;;;;;;;11.07;8.10;;;;;;;18.12;100.00;99323.06;5015592;28;20193;-80
2022/06/16 04:00:10;;;;;;;8.57;7.63;;;;;;;18.20;100.00;99316.88;5015389;28;20675;-81
2022/06/16 04:02:37;;;;;;;10.13;8.63;;;;;;;18.20;100.00;99318.75;5015463;28;20606;-81
2022/06/16 04:05:04;;;;;;;9.80;7.55;;;;;;;18.03;100.00;99321.19;5015436;28;20272;-80
2022/06/16 04:07:31;;;;;;;10.55;7.75;;;;;;;18.04;100.00;99322.91;5015311;28;20297;-80
2022/06/16 04:09:57;;;;;;;8.15;7.35;;;;;;;18.13;100.00;99332.97;5015303;28;20269;-80
2022/06/16 04:12:26;;;;;;;7.93;7.13;;;;;;;18.25;100.00;99330.94;5014929;28;20307;-80
2022/06/16 04:14:52;;;;;;;8.82;7.35;;;;;;;18.20;100.00;99330.50;5015298;28;20758;-79
2022/06/16 04:17:19;;;;;;;10.13;8.13;;;;;;;18.06;100.00;99339.09;5015212;28;20603;-79
2022/06/16 04:22:30;;;;;;;9.18;8.23;;;;;;;18.23;100.00;99332.09;5014862;28;20192;-79
2022/06/16 04:24:56;;;;;;;10.82;7.72;;;;;;;18.19;100.00;99331.50;5015122;28;20581;-80
2022/06/16 04:27:24;;;;;;;7.93;7.22;;;;;;;18.11;100.00;99332.25;5014741;28;20252;-79
2022/06/16 04:29:51;;;;;;;8.10;7.40;;;;;;;18.24;100.00;99334.66;5023197;28;20277;-80
2022/06/16 04:32:18;;;;;;;10.10;7.80;;;;;;;18.30;100.00;99331.34;5016901;28;20664;-79
2022/06/16 04:34:45;;;;;;;31.08;29.00;;;;;;;18.39;100.00;99342.41;5021311;28;20187;-80
2022/06/16 04:37:12;;;;;;;8.63;7.30;;;;;;;18.38;100.00;99341.53;5014782;28;20193;-81
2022/06/16 04:39:39;;;;;;;8.90;8.07;;;;;;;18.49;100.00;99344.09;5031857;28;20225;-80
2022/06/16 04:42:07;;;;;;;13.43;8.00;;;;;;;18.45;100.00;99352.69;5034150;28;20283;-81
2022/06/16 04:44:35;;;;;;;10.00;8.70;;;;;;;18.53;100.00;99350.13;5017194;28;20198;-80
2022/06/16 04:47:03;;;;;;;9.73;8.73;;;;;;;18.43;100.00;99361.03;5021477;28;20284;-79
2022/06/16 04:49:29;;;;;;;9.98;8.50;;;;;;;18.55;100.00;99365.31;5028178;28;20189;-79
2022/06/16 04:51:56;;;;;;;9.70;8.48;;;;;;;18.64;100.00;99365.47;5034398;28;20718;-79
2022/06/16 04:54:23;;;;;;;9.83;8.47;;;;;;;18.65;100.00;99356.25;5022934;28;20286;-81
2022/06/16 04:56:49;;;;;;;9.10;8.20;;;;;;;18.67;100.00;99357.81;5013259;28;20504;-80
2022/06/16 04:59:16;;;;;;;11.68;8.50;;;;;;;18.83;100.00;99370.88;5014406;28;20277;-80
2022/06/16 05:01:44;;;;;;;9.18;8.15;;;;;;;18.92;100.00;99378.19;5014557;28;20236;-80
2022/06/16 05:04:11;;;;;;;10.43;8.45;;;;;;;18.70;100.00;99375.75;5015431;28;20196;-80
2022/06/16 05:06:37;;;;;;;12.65;8.57;;;;;;;18.96;99.33;99381.50;5029434;28;20198;-80
2022/06/16 05:09:04;;;;;;;9.87;8.90;;;;;;;19.08;97.42;99379.44;5034112;28;20207;-80
2022/06/16 05:11:31;;;;;;;10.20;9.13;;;;;;;19.11;98.20;99381.88;5033880;28;20441;-81
2022/06/16 05:14:00;;;;;;;10.33;8.90;;;;;;;19.35;95.17;99379.44;5017089;28;20524;-81
2022/06/16 05:16:27;;;;;;;11.55;8.98;;;;;;;19.51;92.79;99378.81;5031637;28;20448;-82
2022/06/16 05:18:56;;;;;;;14.43;9.67;;;;;;;19.79;90.83;99382.44;5033930;28;20236;-80
2022/06/16 05:21:23;;;;;;;11.60;9.77;;;;;;;19.79;89.32;99389.78;5033292;28;20471;-80
2022/06/16 05:23:49;;;;;;;14.33;9.33;;;;;;;20.01;87.44;99385.72;5028483;28;20520;-79
2022/06/16 05:26:16;;;;;;;9.50;8.60;;;;;;;20.18;85.36;99392.22;5013419;28;20477;-82
2022/06/16 05:28:43;;;;;;;11.53;9.30;;;;;;;19.64;88.40;99405.75;5013817;28;21041;-80
2022/06/16 05:31:09;;;;;;;408.52;375.60;;;;;;;19.67;88.50;99410.94;5014989;28;20469;-80
2022/06/16 05:33:36;;;;;;;73.40;69.17;;;;;;;19.73;88.32;99404.03;5023667;28;20278;-80
2022/06/16 05:36:07;;;;;;;432.38;384.73;;;;;;;19.99;87.00;99406.91;5013875;28;20424;-82
2022/06/16 05:38:35;;;;;;;57.87;54.83;;;;;;;19.94;86.65;99407.38;5013945;28;20193;-80
2022/06/16 05:41:06;;;;;;;13.30;10.07;;;;;;;19.95;86.92;99413.69;5017777;28;20535;-80
2022/06/16 05:43:34;;;;;;;10.30;8.40;;;;;;;20.16;85.64;99411.50;5027713;28;20449;-81
2022/06/16 05:46:01;;;;;;;9.50;8.47;;;;;;;20.54;82.99;99414.94;5033685;28;20435;-80
2022/06/16 05:48:28;;;;;;;9.97;8.93;;;;;;;20.56;82.53;99423.00;5033192;28;20447;-80
2022/06/16 05:50:56;;;;;;;12.70;11.00;;;;;;;20.86;80.63;99427.19;5030292;28;20437;-79
2022/06/16 05:53:24;;;;;;;34.10;31.90;;;;;;;21.02;79.86;99437.41;5033237;28;20428;-81
2022/06/16 05:55:52;;;;;;;27.53;25.43;;;;;;;20.95;80.05;99434.44;5031606;28;20535;-80
2022/06/16 05:58:18;;;;;;;13.27;8.63;;;;;;;21.13;79.07;99439.88;5013483;28;20528;-81
2022/06/16 06:00:45;;;;;;;10.43;8.30;;;;;;;20.99;78.91;99441.31;5012926;28;20497;-82
2022/06/16 06:03:12;;;;;;;8.67;7.80;;;;;;;20.83;81.12;99435.75;5025612;28;20528;-80
2022/06/16 06:05:39;;;;;;;11.90;8.77;;;;;;;21.00;79.37;99444.91;5012816;28;20433;-79
2022/06/16 06:16:29;;;;;;;8.40;7.50;;;;;;;21.69;74.05;99454.09;5020596;28;20998;-79
2022/06/16 06:18:57;;;;;;;8.87;7.97;;;;;;;21.80;72.79;99467.50;5024933;28;20432;-80
2022/06/16 06:24:05;;;;;;;8.97;7.00;;;;;;;21.61;72.71;99463.13;5030497;28;20437;-79
2022/06/16 06:26:34;;;;;;;8.40;6.97;;;;;;;21.56;72.44;99465.50;5032323;28;20516;-80
2022/06/16 06:29:01;;;;;;;8.03;7.23;;;;;;;21.84;70.91;99473.50;5020600;28;20475;-81
2022/06/16 06:31:27;;;;;;;9.13;7.50;;;;;;;22.04;70.47;99476.84;5012379;28;20432;-79
2022/06/16 06:33:54;;;;;;;10.43;7.13;;;;;;;22.06;69.87;99477.53;5013014;28;20467;-80
2022/06/16 06:36:21;;;;;;;7.10;6.50;;;;;;;22.15;69.68;99484.75;5022130;28;20531;-80
2022/06/16 06:38:47;;;;;;;8.40;6.80;;;;;;;22.17;69.38;99488.19;5012674;28;20469;-80
2022/06/16 06:41:17;;;;;;;7.17;6.53;;;;;;;22.30;69.52;99489.66;5015512;28;20469;-81
2022/06/16 06:43:45;;;;;;;7.73;7.00;;;;;;;22.85;66.62;99489.03;5012165;28;20460;-81
2022/06/16 06:46:11;;;;;;;7.80;7.00;;;;;;;22.56;66.99;99492.25;5015674;28;20968;-81
2022/06/16 06:48:38;;;;;;;11.93;7.10;;;;;;;22.84;65.00;99496.44;5012608;28;20497;-80
2022/06/16 06:51:05;;;;;;;6.83;6.23;;;;;;;22.67;66.03;99502.91;5012373;28;20744;-79
2022/06/16 06:53:31;;;;;;;7.23;6.13;;;;;;;22.92;64.70;99509.28;5012208;28;20789;-79
2022/06/16 06:56:00;;;;;;;6.80;6.00;;;;;;;22.83;64.82;99513.91;5018329;28;20787;-80
2022/06/16 06:58:26;;;;;;;6.03;5.50;;;;;;;22.82;66.07;99512.22;5033025;28;20506;-79
2022/06/16 07:00:54;;;;;;;5.80;5.30;;;;;;;23.18;64.25;99509.16;5033446;28;20922;-80
2022/06/16 07:03:22;;;;;;;6.47;5.87;;;;;;;23.33;63.45;99520.28;5032286;28;20499;-80
2022/06/16 07:05:49;;;;;;;8.47;5.53;;;;;;;23.81;61.33;99517.63;5031803;28;20548;-82
2022/06/16 07:08:15;;;;;;;6.50;6.00;;;;;;;24.18;60.04;99519.75;5024731;28;20489;-80
2022/06/16 07:10:42;;;;;;;6.07;5.57;;;;;;;24.28;59.20;99525.88;5012189;28;20556;-80
2022/06/16 07:13:09;;;;;;;6.57;5.97;;;;;;;24.43;58.22;99523.22;5016472;28;20480;-80
2022/06/16 07:15:37;;;;;;;6.33;5.40;;;;;;;24.54;58.29;99530.25;5012248;28;21056;-80
2022/06/16 07:18:06;;;;;;;6.43;5.93;;;;;;;24.67;57.75;99526.88;5012338;28;20520;-81
2022/06/16 07:20:33;;;;;;;7.10;5.70;;;;;;;24.72;57.21;99536.34;5015764;28;20511;-81
2022/06/16 07:23:00;;;;;;;6.53;5.93;;;;;;;25.08;56.33;99529.38;5017154;28;20532;-80
2022/06/16 07:25:27;;;;;;;6.00;5.13;;;;;;;25.18;55.41;99524.44;5016117;28;20468;-82
2022/06/16 07:27:54;;;;;;;6.57;5.80;;;;;;;25.35;55.24;99534.31;5017812;28;21707;-82
2022/06/16 07:30:22;;;;;;;6.80;5.57;;;;;;;25.54;54.42;99537.59;5031944;28;20452;-80
2022/06/16 07:32:49;;;;;;;6.90;5.57;;;;;;;25.64;53.65;99540.91;5035347;28;20469;-81
2022/06/16 07:35:21;;;;;;;6.80;5.17;;;;;;;25.70;52.83;99542.94;5035444;28;20508;-80
2022/06/16 07:37:48;;;;;;;5.53;5.13;;;;;;;25.82;52.47;99537.78;5015478;28;20433;-81
2022/06/16 07:40:17;;;;;;;5.67;5.17;;;;;;;26.03;51.65;99541.72;5015482;28;20556;-81
2022/06/16 07:42:44;;;;;;;6.90;5.93;;;;;;;26.19;51.17;99542.41;5015470;28;20472;-80
2022/06/16 07:45:12;;;;;;;5.77;5.27;;;;;;;25.93;51.98;99536.50;5015723;28;20445;-79
2022/06/16 07:47:39;;;;;;;7.00;6.37;;;;;;;25.72;53.34;99537.22;5016713;28;20951;-78
2022/06/16 07:50:08;;;;;;;6.60;5.33;;;;;;;25.69;53.54;99537.59;5036654;28;20428;-82
2022/06/16 07:52:36;;;;;;;5.83;5.27;;;;;;;25.78;53.14;99533.72;5035845;28;20436;-80
2022/06/16 07:55:04;;;;;;;6.40;5.20;;;;;;;26.48;50.47;99539.78;5031379;28;20515;-79
2022/06/16 07:57:34;;;;;;;6.20;5.57;;;;;;;26.52;49.88;99541.94;5035130;28;20462;-81
2022/06/16 08:00:02;;;;;;;6.10;5.03;;;;;;;26.90;49.06;99533.50;5035195;28;20468;-81
2022/06/16 08:02:29;;;;;;;7.63;6.20;;;;;;;26.44;51.40;99544.84;5034917;28;20821;-81
2022/06/16 08:04:56;;;;;;;8.07;6.10;;;;;;;26.40;51.79;99544.38;5035045;28;20451;-82
2022/06/16 08:07:22;;;;;;;7.93;5.70;;;;;;;26.82;51.27;99552.97;5035016;28;20431;-81
2022/06/16 08:09:50;;;;;;;7.43;5.47;;;;;;;26.64;49.30;99556.16;5034724;28;20516;-80
2022/06/16 08:12:19;;;;;;;5.30;4.57;;;;;;;26.70;49.31;99560.88;5024934;28;20433;-82
2022/06/16 08:14:48;;;;;;;6.00;5.40;;;;;;;26.45;49.90;99563.09;5018095;28;21074;-82
2022/06/16 08:17:18;;;;;;;6.00;4.90;;;;;;;26.38;49.63;99574.06;5034566;28;20882;-82
2022/06/16 08:19:45;;;;;;;6.20;5.00;;;;;;;26.69;48.56;99572.16;5034083;28;20433;-82
2022/06/16 08:22:12;;;;;;;5.63;5.13;;;;;;;26.82;48.63;99578.69;5034109;28;20832;-81
2022/06/16 08:24:39;;;;;;;8.97;8.13;;;;;;;26.57;48.26;99567.13;5033600;28;20444;-84
2022/06/16 08:27:07;;;;;;;11.43;7.17;;;;;;;26.46;47.83;99581.41;5021414;28;20544;-81
2022/06/16 08:29:36;;;;;;;9.87;7.33;;;;;;;26.79;47.31;99578.19;5033561;28;20435;-83
2022/06/16 08:32:04;;;;;;;6.43;5.70;;;;;;;26.80;48.29;99582.69;5024786;28;20521;-82
2022/06/16 08:34:30;;;;;;;7.47;6.63;;;;;;;27.03;47.32;99577.84;5014310;28;20521;-82
2022/06/16 08:36:57;;;;;;;8.53;5.87;;;;;;;27.34;47.56;99573.94;5014331;28;20516;-82
2022/06/16 08:39:24;;;;;;;8.70;6.57;;;;;;;27.62;46.98;99579.47;5014418;28;20904;-83
2022/06/16 08:41:54;;;;;;;8.63;6.40;;;;;;;27.61;45.60;99583.31;5014265;28;20477;-83
2022/06/16 08:44:28;;;;;;;6.50;5.90;;;;;;;27.58;45.64;99585.63;5014244;28;20441;-83
2022/06/16 08:47:03;;;;;;;9.40;6.47;;;;;;;27.51;45.83;99582.78;5022749;28;20520;-84
2022/06/16 08:49:39;;;;;;;7.00;5.63;;;;;;;27.77;45.41;99582.16;5030783;28;20433;-83
2022/06/16 08:52:22;;;;;;;6.47;4.77;;;;;;;27.49;46.58;99579.38;5033814;28;20820;-83
2022/06/16 08:55:02;;;;;;;11.53;5.43;;;;;;;27.31;47.18;99584.53;5033576;28;20435;-81
2022/06/16 08:57:40;;;;;;;5.60;5.10;;;;;;;27.46;46.68;99588.06;5033638;28;20451;-84
2022/06/16 09:00:13;;;;;;;5.77;4.47;;;;;;;28.10;44.89;99591.78;5033305;28;20440;-83
2022/06/16 09:02:46;;;;;;;5.80;5.30;;;;;;;28.27;44.31;99593.16;5033216;28;20497;-83
2022/06/16 09:05:29;;;;;;;14.30;10.37;;;;;;;28.41;44.13;99586.63;5033474;28;20436;-84
2022/06/16 09:08:05;;;;;;;5.83;5.20;;;;;;;27.76;45.48;99593.41;5033678;28;20434;-83
2022/06/16 09:10:40;;;;;;;5.70;5.10;;;;;;;27.36;46.23;99593.06;5019993;28;20508;-83
2022/06/16 09:13:33;;;;;;;6.90;4.93;;;;;;;27.35;45.51;99591.38;5013380;28;20433;-83
2022/06/16 09:16:15;;;;;;;9.50;5.47;;;;;;;27.23;46.16;99604.88;5024284;28;20447;-82
2022/06/16 09:19:12;;;;;;;5.07;4.60;;;;;;;27.73;44.67;99586.38;5021702;28;20443;-81
2022/06/16 09:21:47;;;;;;;9.60;5.60;;;;;;;27.93;44.19;99589.31;5029827;28;20484;-81
2022/06/16 09:24:31;;;;;;;5.93;5.33;;;;;;;28.23;43.75;99600.16;5033127;28;20527;-81
2022/06/16 09:27:02;;;;;;;5.90;5.30;;;;;;;28.09;44.83;99598.38;5032920;28;20483;-82
2022/06/16 09:29:35;;;;;;;7.03;5.17;;;;;;;28.16;44.77;99599.28;5033244;28;20507;-81
2022/06/16 09:32:10;;;;;;;6.77;5.50;;;;;;;27.98;45.24;99600.63;5032418;28;20435;-84
2022/06/16 09:34:40;;;;;;;5.63;5.13;;;;;;;28.03;44.59;99606.41;5032606;28;20428;-83
2022/06/16 09:37:16;;;;;;;7.80;5.30;;;;;;;27.12;46.14;99616.41;5020133;28;20464;-82
2022/06/16 09:39:49;;;;;;;6.70;5.97;;;;;;;27.31;45.70;99607.47;5013555;28;20800;-83
2022/06/16 09:42:33;;;;;;;6.67;5.60;;;;;;;27.30;46.07;99605.78;5026773;28;20889;-82
2022/06/16 09:45:05;;;;;;;5.83;5.23;;;;;;;27.20;46.16;99603.34;5032614;28;20432;-84
2022/06/16 09:47:38;;;;;;;5.47;4.93;;;;;;;27.71;45.26;99616.16;5015998;28;20438;-83
2022/06/16 09:50:12;;;;;;;7.30;5.07;;;;;;;27.83;44.33;99619.22;5021392;28;20517;-83
2022/06/16 09:52:45;;;;;;;6.17;5.30;;;;;;;27.99;42.03;99623.63;5012671;28;20429;-82
2022/06/16 09:55:19;;;;;;;5.10;4.70;;;;;;;27.89;42.25;99626.75;5014112;28;20441;-82
2022/06/16 09:57:51;;;;;;;5.33;4.83;;;;;;;28.09;41.58;99617.75;5013002;28;20476;-82
2022/06/16 10:00:21;;;;;;;63.07;56.30;;;;;;;28.27;41.97;99629.16;5012676;28;20873;-82
2022/06/16 10:02:53;;;;;;;5.50;5.00;;;;;;;28.18;41.97;99631.22;5012444;28;20473;-82
2022/06/16 10:05:35;;;;;;;7.13;4.37;;;;;;;27.96;35.75;99643.41;5026333;28;20439;-82
2022/06/16 10:08:07;;;;;;;4.33;3.80;;;;;;;27.78;35.78;99641.09;5032227;28;20424;-83
2022/06/16 10:10:45;;;;;;;5.93;4.27;;;;;;;28.19;36.49;99635.69;5032599;28;20848;-81
2022/06/16 10:13:20;;;;;;;5.50;4.57;;;;;;;28.35;37.87;99653.03;5032531;28;20768;-82
2022/06/16 10:15:52;;;;;;;6.03;4.83;;;;;;;28.25;38.29;99645.94;5024114;28;20440;-83
2022/06/16 10:18:22;;;;;;;5.30;4.37;;;;;;;28.13;37.63;99658.66;5031847;28;20930;-83
2022/06/16 10:20:49;;;;;;;4.50;3.90;;;;;;;28.04;36.99;99657.94;5015889;28;20818;-83
2022/06/16 10:23:19;;;;;;;5.67;4.00;;;;;;;28.11;36.72;99652.47;5023489;28;20552;-84
2022/06/16 10:25:54;;;;;;;6.23;4.10;;;;;;;28.18;35.05;99658.91;5012734;28;20813;-83
2022/06/16 10:28:27;;;;;;;3.53;2.87;;;;;;;28.34;31.40;99663.25;5019995;28;20530;-81
2022/06/16 10:30:53;;;;;;;8.30;3.83;;;;;;;28.02;33.91;99667.53;5016315;28;20440;-83
2022/06/16 10:33:23;;;;;;;5.33;3.50;;;;;;;27.90;34.08;99669.09;5032093;28;20775;-83
2022/06/16 10:35:53;;;;;;;7.43;3.40;;;;;;;28.06;32.12;99664.16;5020572;28;20553;-83
2022/06/16 10:38:28;;;;;;;5.10;3.67;;;;;;;27.92;32.31;99669.75;5012488;28;20991;-80
2022/06/16 10:40:55;;;;;;;7.37;3.60;;;;;;;28.27;32.85;99666.00;5018818;28;20441;-82
2022/06/16 10:43:23;;;;;;;5.77;4.10;;;;;;;28.12;33.30;99676.31;5016642;28;20457;-83
2022/06/16 10:45:57;;;;;;;4.73;4.30;;;;;;;28.15;33.75;99659.28;5012175;28;20462;-82
2022/06/16 10:48:30;;;;;;;4.27;3.87;;;;;;;28.16;33.58;99671.25;5019807;28;21257;-82
2022/06/16 10:51:09;;;;;;;5.77;4.17;;;;;;;28.16;32.67;99668.47;5031353;28;20456;-82
2022/06/16 10:53:40;;;;;;;4.73;3.90;;;;;;;28.36;32.56;99675.00;5018589;28;20787;-82
2022/06/16 10:56:10;;;;;;;4.30;3.90;;;;;;;27.97;33.70;99676.44;5025139;28;20486;-82
2022/06/16 10:58:46;;;;;;;6.03;3.80;;;;;;;28.14;32.41;99654.81;5030927;28;21334;-82
2022/06/16 11:01:17;;;;;;;7.00;3.70;;;;;;;28.40;32.54;99670.78;5011555;28;20469;-81
2022/06/16 11:03:47;;;;;;;4.60;4.20;;;;;;;28.29;32.20;99657.50;5011495;28;20422;-82
2022/06/16 11:06:16;;;;;;;4.03;3.63;;;;;;;28.22;32.21;99660.22;5017194;28;20783;-83
2022/06/16 11:08:47;;;;;;;4.30;3.80;;;;;;;28.48;32.02;99658.69;5029742;28;20433;-84
2022/06/16 11:11:18;;;;;;;4.27;3.70;;;;;;;28.55;32.86;99659.59;5031719;28;20837;-83
2022/06/16 11:13:49;;;;;;;5.53;4.20;;;;;;;28.21;33.77;99661.25;5031299;28;20512;-84
2022/06/16 11:16:26;;;;;;;4.73;4.23;;;;;;;28.53;32.83;99663.63;5023745;28;20442;-83
2022/06/16 11:18:58;;;;;;;6.77;4.60;;;;;;;28.43;32.91;99661.19;5011303;28;20418;-83
2022/06/16 11:21:29;;;;;;;4.70;4.17;;;;;;;28.39;33.21;99660.72;5015583;28;20523;-83
2022/06/16 11:23:59;;;;;;;5.53;4.13;;;;;;;28.46;32.90;99666.31;5028216;28;20429;-82
2022/06/16 11:26:28;;;;;;;4.60;4.00;;;;;;;28.35;32.69;99666.88;5029764;28;20527;-82
2022/06/16 11:29:01;;;;;;;8.20;4.40;;;;;;;28.10;32.10;99669.25;5015363;28;20496;-81
2022/06/16 11:31:38;;;;;;;5.80;4.13;;;;;;;28.34;31.99;99667.94;5011454;28;20425;-82
2022/06/16 11:34:17;;;;;;;4.83;3.80;;;;;;;28.30;30.95;99661.09;5011676;28;20514;-82
2022/06/16 11:37:03;;;;;;;3.60;3.30;;;;;;;28.18;30.88;99661.66;5011644;28;20853;-81
2022/06/16 11:39:43;;;;;;;7.33;3.97;;;;;;;28.21;31.43;99675.09;5011775;28;20531;-83
2022/06/16 11:42:21;;;;;;;4.20;3.53;;;;;;;28.23;31.34;99661.06;5017583;28;20551;-81
2022/06/16 11:44:54;;;;;;;11.33;4.47;;;;;;;28.50;31.39;99670.44;5015731;28;20439;-80
2022/06/16 11:47:37;;;;;;;5.63;4.00;;;;;;;28.54;31.47;99662.53;5014537;28;20500;-81
2022/06/16 11:50:14;;;;;;;4.03;3.60;;;;;;;28.26;32.52;99666.19;5030810;28;20456;-80
2022/06/16 11:52:52;;;;;;;4.23;3.83;;;;;;;28.32;31.84;99659.84;5024302;28;20516;-80
2022/06/16 11:55:31;;;;;;;5.57;3.50;;;;;;;28.26;32.18;99660.66;5010982;28;20449;-81
2022/06/16 11:58:10;;;;;;;4.43;4.03;;;;;;;28.08;32.64;99669.47;5011104;28;20432;-78
2022/06/16 12:00:45;;;;;;;5.17;3.77;;;;;;;28.45;32.44;99667.38;5024204;28;20792;-81
2022/06/16 12:03:37;;;;;;;82.80;79.57;;;;;;;28.46;32.27;99672.69;5032339;28;20550;-83
2022/06/16 12:13:03;;;;;;;5.33;4.30;;;;;;;28.27;33.04;99660.44;5033285;28;20404;-81